Time;durP1;ratioP1;P1;durP2;ratioP2;P2;SDS_P1;SDS_P2;PMS_P1;PMS_P2;Temp;Humidity;BMP_temperature;BMP_pressure;BME280_temperature;BME280_humidity;BME280_pressure;Samples;Min_cycle;Max_cycle;Signal;HPM_P1;HPM_P2
2023/08/08 00:00:17;;;;;;;3.67;1.97;;;13.40;99.90;;;;;;4971822;28;20963;-64
2023/08/08 00:02:46;;;;;;;1.57;1.43;;;13.40;99.90;;;;;;4970419;28;20496;-65
2023/08/08 00:05:14;;;;;;;2.73;1.90;;;13.30;99.90;;;;;;4980475;28;20980;-65
2023/08/08 00:07:42;;;;;;;2.30;1.57;;;13.40;99.90;;;;;;4990977;28;20545;-65
2023/08/08 00:10:10;;;;;;;2.60;2.40;;;13.30;99.90;;;;;;4990973;28;20474;-65
2023/08/08 00:12:40;;;;;;;2.43;1.70;;;13.30;99.90;;;;;;4989746;28;20457;-65
2023/08/08 00:15:09;;;;;;;1.80;1.50;;;13.40;99.90;;;;;;4992354;28;20462;-65
2023/08/08 00:17:37;;;;;;;3.57;1.97;;;13.40;99.90;;;;;;4991486;28;21126;-65
2023/08/08 00:20:07;;;;;;;2.33;1.43;;;13.40;99.90;;;;;;4990866;28;20443;-64
2023/08/08 00:22:35;;;;;;;4.63;1.80;;;13.40;99.90;;;;;;4987684;28;20523;-65
2023/08/08 00:25:03;;;;;;;2.70;1.50;;;13.50;99.90;;;;;;4990792;28;20521;-65
2023/08/08 00:27:31;;;;;;;3.30;2.00;;;13.60;99.90;;;;;;4990777;28;20434;-65
2023/08/08 00:30:01;;;;;;;2.67;1.77;;;13.50;99.90;;;;;;4990813;28;20532;-65
2023/08/08 00:32:29;;;;;;;8.07;2.83;;;13.50;99.90;;;;;;4989842;28;20546;-65
2023/08/08 00:34:57;;;;;;;1.50;1.40;;;13.60;99.90;;;;;;4990771;28;20473;-65
2023/08/08 00:37:25;;;;;;;5.87;1.70;;;13.60;99.90;;;;;;4984010;28;20532;-65
2023/08/08 00:39:53;;;;;;;3.40;1.97;;;13.50;99.90;;;;;;4971227;28;20436;-65
2023/08/08 00:42:21;;;;;;;2.87;1.93;;;13.50;99.90;;;;;;4970633;28;20458;-65
2023/08/08 00:44:49;;;;;;;1.40;1.20;;;13.60;99.90;;;;;;4971003;28;20910;-65
2023/08/08 00:47:19;;;;;;;3.83;1.77;;;13.60;99.90;;;;;;4971169;28;20496;-64
2023/08/08 00:49:48;;;;;;;2.20;1.80;;;13.60;99.90;;;;;;4971186;28;20487;-65
2023/08/08 00:52:16;;;;;;;1.87;1.70;;;13.60;99.90;;;;;;4970383;28;20476;-64
2023/08/08 00:54:44;;;;;;;2.90;1.90;;;13.70;99.90;;;;;;4982822;28;21057;-65
2023/08/08 00:57:13;;;;;;;2.27;1.70;;;13.70;99.90;;;;;;4990408;28;20486;-65
2023/08/08 00:59:41;;;;;;;2.07;1.80;;;13.70;99.90;;;;;;4991012;28;20443;-65
2023/08/08 01:02:09;;;;;;;3.27;2.80;;;13.80;99.90;;;;;;4989864;28;20445;-65
2023/08/08 01:04:39;;;;;;;5.20;2.10;;;13.70;99.90;;;;;;4989342;28;20474;-65
2023/08/08 01:07:13;;;;;;;3.77;1.60;;;13.70;99.90;;;;;;4990162;28;20443;-65
2023/08/08 01:09:49;;;;;;;1.80;1.60;;;13.70;99.90;;;;;;4986930;28;20875;-65
2023/08/08 01:12:17;;;;;;;2.00;1.67;;;13.70;99.90;;;;;;4970237;28;20491;-65
2023/08/08 01:14:46;;;;;;;2.40;1.83;;;13.70;99.90;;;;;;4970079;28;20586;-65
2023/08/08 01:17:14;;;;;;;2.80;1.93;;;13.80;99.90;;;;;;4970791;28;20546;-65
2023/08/08 01:19:44;;;;;;;2.00;1.80;;;13.80;99.90;;;;;;4970539;28;20466;-65
2023/08/08 01:22:24;;;;;;;1.60;1.43;;;14.00;99.90;;;;;;4970435;28;20454;-65
2023/08/08 01:24:54;;;;;;;3.37;1.83;;;14.00;99.90;;;;;;4970574;28;20467;-65
2023/08/08 01:27:23;;;;;;;2.43;1.60;;;13.90;99.90;;;;;;4972021;28;20465;-65
2023/08/08 01:29:54;;;;;;;1.60;1.50;;;14.00;99.90;;;;;;4970537;28;20530;-65
2023/08/08 01:32:22;;;;;;;3.87;2.10;;;14.00;99.90;;;;;;4969722;28;20486;-64
2023/08/08 01:34:50;;;;;;;2.23;1.87;;;14.10;99.90;;;;;;4971988;28;20618;-65
2023/08/08 01:37:21;;;;;;;2.10;1.87;;;14.10;99.90;;;;;;4981071;28;21089;-65
2023/08/08 01:39:53;;;;;;;1.90;1.70;;;14.10;99.90;;;;;;4994010;28;20489;-64
2023/08/08 01:42:24;;;;;;;2.40;2.20;;;14.10;99.90;;;;;;4993231;28;20458;-65
2023/08/08 01:44:55;;;;;;;1.77;1.47;;;14.10;99.90;;;;;;4993268;28;20459;-65
2023/08/08 01:47:23;;;;;;;1.83;1.60;;;14.20;99.90;;;;;;4993518;28;20963;-64
2023/08/08 01:49:51;;;;;;;1.73;1.63;;;14.20;99.90;;;;;;4993621;28;20854;-65
2023/08/08 01:52:19;;;;;;;2.03;1.83;;;14.30;99.90;;;;;;4974792;28;21045;-65
2023/08/08 01:54:47;;;;;;;2.90;1.70;;;14.30;99.90;;;;;;4973362;28;20468;-64
2023/08/08 01:57:14;;;;;;;2.60;2.00;;;14.40;99.90;;;;;;4973726;28;21008;-66
2023/08/08 01:59:45;;;;;;;2.37;1.83;;;14.40;99.90;;;;;;4973812;28;20443;-65
2023/08/08 02:02:15;;;;;;;3.20;2.10;;;14.40;99.90;;;;;;4972517;28;20529;-64
2023/08/08 02:04:43;;;;;;;5.23;1.87;;;14.30;99.90;;;;;;4977075;28;20465;-65
2023/08/08 02:07:11;;;;;;;1.70;1.47;;;14.30;99.90;;;;;;4993191;28;20470;-64
2023/08/08 02:09:38;;;;;;;3.50;1.73;;;14.40;99.90;;;;;;4993166;28;20483;-65
2023/08/08 02:12:07;;;;;;;1.90;1.77;;;14.40;99.90;;;;;;4992672;28;20457;-66
2023/08/08 02:14:35;;;;;;;3.87;1.63;;;14.40;99.90;;;;;;4992283;28;20556;-65
2023/08/08 02:17:05;;;;;;;3.90;1.60;;;14.30;99.90;;;;;;4993095;28;20488;-65
2023/08/08 02:19:33;;;;;;;3.93;2.03;;;14.30;99.90;;;;;;4993061;28;20458;-65
2023/08/08 02:22:01;;;;;;;2.20;1.97;;;14.30;99.90;;;;;;4990697;28;20449;-63
2023/08/08 02:24:29;;;;;;;3.93;2.13;;;14.30;99.90;;;;;;4991872;28;20474;-65
2023/08/08 02:26:57;;;;;;;2.63;1.80;;;14.30;99.90;;;;;;4993199;28;20435;-65
2023/08/08 02:29:25;;;;;;;1.90;1.77;;;14.30;99.90;;;;;;4993236;28;20445;-65
2023/08/08 02:31:55;;;;;;;2.23;2.03;;;14.30;99.90;;;;;;4992923;28;20443;-65
2023/08/08 02:34:24;;;;;;;2.23;2.03;;;14.20;99.90;;;;;;4991724;28;20462;-65
2023/08/08 02:36:52;;;;;;;3.80;1.70;;;14.30;99.90;;;;;;4991116;28;20465;-65
2023/08/08 02:39:20;;;;;;;2.80;1.50;;;14.20;99.90;;;;;;4992929;28;20466;-64
2023/08/08 02:41:48;;;;;;;2.40;2.00;;;14.10;99.90;;;;;;4992587;28;20451;-66
2023/08/08 02:44:16;;;;;;;2.90;1.70;;;13.90;99.90;;;;;;4991465;28;20498;-66
2023/08/08 02:46:44;;;;;;;2.83;1.70;;;13.90;99.90;;;;;;4992410;28;20446;-66
2023/08/08 02:49:12;;;;;;;1.67;1.57;;;13.70;99.90;;;;;;4992670;28;20670;-66
2023/08/08 02:51:42;;;;;;;1.77;1.50;;;13.70;99.90;;;;;;4992588;28;20453;-65
2023/08/08 02:54:10;;;;;;;2.30;1.70;;;13.60;99.90;;;;;;4981582;28;20559;-66
2023/08/08 02:56:38;;;;;;;2.53;1.53;;;13.60;99.90;;;;;;4972960;28;20542;-66
2023/08/08 02:59:05;;;;;;;6.03;1.90;;;13.60;99.90;;;;;;4972774;28;20581;-64
2023/08/08 03:01:37;;;;;;;2.10;1.90;;;13.50;99.90;;;;;;4972956;28;21100;-66
2023/08/08 03:04:05;;;;;;;1.90;1.63;;;13.60;99.90;;;;;;4971419;28;20559;-66
2023/08/08 03:06:33;;;;;;;4.97;1.57;;;13.60;99.90;;;;;;4972813;28;20528;-66
2023/08/08 03:09:03;;;;;;;1.67;1.50;;;13.60;99.90;;;;;;4972856;28;20441;-65
2023/08/08 03:11:31;;;;;;;1.93;1.47;;;13.70;99.90;;;;;;4972722;28;20486;-65
2023/08/08 03:13:59;;;;;;;3.30;1.83;;;13.60;99.90;;;;;;4971513;28;20506;-66
2023/08/08 03:16:27;;;;;;;2.40;1.83;;;13.60;99.90;;;;;;4972337;28;20452;-66
2023/08/08 03:18:56;;;;;;;1.87;1.77;;;13.60;99.90;;;;;;4972651;28;20513;-66
2023/08/08 03:21:24;;;;;;;2.30;1.33;;;13.60;99.90;;;;;;4972486;28;20518;-65
2023/08/08 03:23:52;;;;;;;1.50;1.40;;;13.50;99.90;;;;;;4971196;28;20648;-65
2023/08/08 03:26:21;;;;;;;1.97;1.40;;;13.50;99.90;;;;;;4978625;28;20482;-66
2023/08/08 03:28:53;;;;;;;4.80;2.27;;;13.50;99.90;;;;;;4991647;28;20449;-66
2023/08/08 03:31:21;;;;;;;3.30;2.53;;;13.40;99.90;;;;;;4991750;28;20799;-66
2023/08/08 03:33:49;;;;;;;4.50;2.33;;;13.40;99.90;;;;;;4990512;28;20542;-66
2023/08/08 03:36:17;;;;;;;2.37;1.87;;;13.50;99.90;;;;;;4991743;28;20443;-66
2023/08/08 03:38:45;;;;;;;3.40;1.50;;;13.50;99.90;;;;;;4991442;28;20474;-66
2023/08/08 03:41:14;;;;;;;3.73;1.73;;;13.60;99.90;;;;;;4991409;28;20454;-66
2023/08/08 03:43:43;;;;;;;3.17;1.47;;;13.60;99.90;;;;;;4988476;28;20452;-66
2023/08/08 03:46:12;;;;;;;2.20;1.43;;;13.60;99.90;;;;;;4991677;28;20489;-65
2023/08/08 03:48:40;;;;;;;2.30;1.77;;;13.60;99.90;;;;;;4991551;28;20446;-66
2023/08/08 03:51:08;;;;;;;1.63;1.43;;;13.70;99.90;;;;;;4982842;28;20942;-66
2023/08/08 03:53:36;;;;;;;1.63;1.20;;;13.70;99.90;;;;;;4970608;28;20455;-66
2023/08/08 03:56:04;;;;;;;2.77;1.70;;;13.80;99.90;;;;;;4971332;28;20539;-66
2023/08/08 03:58:32;;;;;;;2.07;1.67;;;13.90;99.90;;;;;;4971228;28;20485;-66
2023/08/08 04:01:01;;;;;;;1.90;1.67;;;13.90;99.90;;;;;;4972039;28;20445;-66
2023/08/08 04:03:29;;;;;;;1.97;1.80;;;13.90;99.90;;;;;;4970635;28;20481;-66
2023/08/08 04:05:57;;;;;;;2.10;1.47;;;14.00;99.90;;;;;;4986324;28;20454;-66
2023/08/08 04:08:25;;;;;;;3.20;1.70;;;14.00;99.90;;;;;;4991013;28;20442;-66
2023/08/08 04:10:54;;;;;;;2.73;1.77;;;14.20;99.90;;;;;;4990852;28;20537;-66
2023/08/08 04:13:21;;;;;;;1.53;1.43;;;14.20;99.90;;;;;;4989731;28;20458;-66
2023/08/08 04:15:51;;;;;;;2.80;2.07;;;14.30;99.90;;;;;;4990912;28;20521;-66
2023/08/08 04:18:26;;;;;;;1.70;1.60;;;14.40;99.90;;;;;;4990953;28;20992;-66
2023/08/08 04:20:54;;;;;;;2.10;1.67;;;14.40;99.90;;;;;;4986363;28;20953;-66
2023/08/08 04:23:25;;;;;;;1.63;1.53;;;14.30;99.90;;;;;;4970458;28;20507;-65
2023/08/08 04:25:53;;;;;;;2.40;1.87;;;14.30;99.90;;;;;;4971766;28;20493;-66
2023/08/08 04:28:22;;;;;;;3.40;1.90;;;14.40;99.90;;;;;;4971695;28;20531;-66
2023/08/08 04:30:49;;;;;;;2.30;1.80;;;14.30;99.90;;;;;;4971567;28;20457;-66
2023/08/08 04:33:18;;;;;;;3.00;1.40;;;14.20;99.90;;;;;;4970195;28;20444;-63
2023/08/08 04:35:47;;;;;;;3.40;1.73;;;14.00;99.90;;;;;;4971497;28;20483;-64
2023/08/08 04:38:15;;;;;;;3.43;1.67;;;14.00;99.90;;;;;;4983678;28;20544;-65
2023/08/08 04:40:43;;;;;;;3.53;1.83;;;13.80;99.90;;;;;;4990736;28;20454;-64
2023/08/08 04:43:11;;;;;;;2.03;1.57;;;13.80;99.90;;;;;;4989466;28;20521;-64
2023/08/08 04:45:39;;;;;;;1.97;1.60;;;13.90;99.90;;;;;;4990585;28;20474;-64
2023/08/08 04:48:08;;;;;;;1.63;1.40;;;13.90;99.90;;;;;;4990262;28;20492;-63
2023/08/08 04:50:36;;;;;;;2.67;1.70;;;14.00;99.90;;;;;;4990502;28;20450;-65
2023/08/08 04:53:05;;;;;;;2.63;1.60;;;13.90;99.90;;;;;;4988566;28;20458;-64
2023/08/08 04:55:33;;;;;;;3.73;1.70;;;13.90;99.90;;;;;;4989945;28;20573;-65
2023/08/08 04:58:01;;;;;;;2.67;1.80;;;13.90;99.90;;;;;;4990284;28;20497;-65
2023/08/08 05:00:29;;;;;;;1.77;1.43;;;14.00;99.90;;;;;;4990368;28;20454;-65
2023/08/08 05:02:57;;;;;;;2.20;1.90;;;14.10;99.90;;;;;;4989092;28;20952;-66
2023/08/08 05:05:25;;;;;;;3.03;1.47;;;14.10;99.90;;;;;;4990293;28;20477;-65
2023/08/08 05:07:53;;;;;;;3.03;1.60;;;14.10;99.90;;;;;;4990391;28;20442;-65
2023/08/08 05:10:23;;;;;;;2.40;1.67;;;14.10;99.90;;;;;;4991408;28;20454;-62
2023/08/08 05:12:51;;;;;;;1.63;1.53;;;14.10;99.90;;;;;;4992980;28;20458;-65
2023/08/08 05:15:19;;;;;;;4.23;1.70;;;14.00;99.90;;;;;;4993995;28;20469;-65
2023/08/08 05:17:47;;;;;;;1.50;1.40;;;14.00;99.90;;;;;;4994357;28;20442;-65
2023/08/08 05:20:16;;;;;;;2.33;2.10;;;14.00;99.90;;;;;;4994213;28;20836;-63
2023/08/08 05:22:44;;;;;;;2.27;1.43;;;14.00;99.90;;;;;;4992901;28;20470;-65
2023/08/08 05:25:12;;;;;;;2.20;1.47;;;14.10;99.90;;;;;;4993910;28;21051;-65
2023/08/08 05:27:41;;;;;;;2.10;1.77;;;14.40;99.90;;;;;;4979522;28;20551;-66
2023/08/08 05:30:09;;;;;;;3.33;1.67;;;14.50;99.90;;;;;;4974510;28;20449;-66
2023/08/08 05:32:37;;;;;;;1.60;1.50;;;14.70;99.90;;;;;;4973436;28;20529;-65
2023/08/08 05:35:07;;;;;;;2.83;1.60;;;14.80;99.90;;;;;;4974735;28;20471;-66
2023/08/08 05:37:35;;;;;;;2.60;1.70;;;14.90;99.90;;;;;;4974672;28;20877;-65
2023/08/08 05:40:06;;;;;;;1.80;1.60;;;15.00;99.90;;;;;;4974204;28;20481;-65
2023/08/08 05:42:34;;;;;;;2.07;1.87;;;15.00;99.90;;;;;;4977612;28;20451;-65
2023/08/08 05:45:04;;;;;;;2.27;1.27;;;15.00;99.90;;;;;;4993402;28;20475;-65
2023/08/08 05:47:33;;;;;;;2.40;1.40;;;15.00;99.90;;;;;;4993653;28;20506;-65
2023/08/08 05:50:02;;;;;;;1.33;1.23;;;15.00;99.90;;;;;;4992902;28;20473;-65
2023/08/08 05:52:30;;;;;;;1.77;1.40;;;15.00;99.90;;;;;;4972928;28;20515;-65
2023/08/08 05:54:59;;;;;;;5.70;1.73;;;15.10;99.90;;;;;;4973645;28;20558;-65
2023/08/08 05:57:27;;;;;;;1.80;1.60;;;15.00;99.90;;;;;;4972350;28;20454;-66
2023/08/08 05:59:55;;;;;;;2.53;1.60;;;15.00;99.90;;;;;;4973807;28;20842;-66
2023/08/08 06:02:25;;;;;;;4.60;2.60;;;15.20;99.90;;;;;;4973506;28;20443;-66
2023/08/08 06:04:53;;;;;;;1.40;1.30;;;15.30;99.90;;;;;;4980436;28;20914;-65
2023/08/08 06:07:21;;;;;;;2.50;1.77;;;15.30;99.90;;;;;;4993406;28;20452;-65
2023/08/08 06:09:49;;;;;;;2.90;2.70;;;15.40;99.90;;;;;;4993430;28;20435;-66
2023/08/08 06:12:17;;;;;;;1.67;1.50;;;15.50;99.90;;;;;;4992689;28;20902;-65
2023/08/08 06:14:45;;;;;;;2.07;1.70;;;15.60;99.90;;;;;;4992512;28;20463;-65
2023/08/08 06:17:13;;;;;;;2.43;1.43;;;15.70;99.90;;;;;;4993118;28;21005;-65
2023/08/08 06:19:42;;;;;;;1.73;1.50;;;15.70;99.90;;;;;;4992932;28;21009;-65
2023/08/08 06:22:10;;;;;;;2.70;1.87;;;15.80;99.90;;;;;;4976364;28;20513;-65
2023/08/08 06:24:39;;;;;;;1.83;1.70;;;16.10;99.90;;;;;;4973205;28;20505;-65
2023/08/08 06:27:07;;;;;;;2.17;1.43;;;16.20;99.90;;;;;;4973712;28;21062;-66
2023/08/08 06:29:35;;;;;;;2.73;1.53;;;16.30;99.90;;;;;;4973943;28;20542;-65
2023/08/08 06:32:03;;;;;;;3.53;1.60;;;16.40;99.90;;;;;;4973408;28;20446;-65
2023/08/08 06:34:31;;;;;;;3.77;1.90;;;16.50;99.90;;;;;;4972711;28;20470;-65
2023/08/08 06:37:01;;;;;;;2.10;1.90;;;16.70;99.90;;;;;;4974473;28;20529;-65
2023/08/08 06:39:29;;;;;;;3.00;1.30;;;16.70;99.90;;;;;;4973420;28;21185;-65
2023/08/08 06:41:57;;;;;;;2.33;1.70;;;16.80;99.90;;;;;;4973323;28;20438;-65
2023/08/08 06:44:25;;;;;;;2.10;1.50;;;16.90;99.90;;;;;;4972349;28;20461;-64
2023/08/08 06:46:53;;;;;;;1.67;1.40;;;16.90;99.90;;;;;;4973320;28;20454;-66
2023/08/08 06:49:21;;;;;;;2.50;1.57;;;17.00;99.90;;;;;;4973172;28;20439;-66
2023/08/08 06:51:49;;;;;;;4.10;1.30;;;16.90;99.90;;;;;;4973019;28;20451;-66
2023/08/08 06:54:18;;;;;;;2.63;1.30;;;16.90;99.90;;;;;;4972643;28;21065;-66
2023/08/08 06:56:47;;;;;;;2.53;1.50;;;16.90;99.90;;;;;;4973181;28;20970;-66
2023/08/08 06:59:15;;;;;;;2.23;1.20;;;16.90;99.90;;;;;;4972956;28;20890;-65
2023/08/08 07:01:43;;;;;;;4.03;1.50;;;17.10;99.90;;;;;;4972940;28;20447;-65
2023/08/08 07:04:11;;;;;;;1.93;1.67;;;17.20;99.90;;;;;;4971730;28;20478;-65
2023/08/08 07:06:39;;;;;;;2.30;1.80;;;17.30;99.90;;;;;;4972407;28;20471;-65
2023/08/08 07:09:10;;;;;;;1.60;1.50;;;17.40;99.90;;;;;;4972878;28;20440;-65
2023/08/08 07:11:39;;;;;;;1.13;1.03;;;17.50;99.90;;;;;;4990023;28;20509;-65
2023/08/08 07:14:07;;;;;;;2.53;1.73;;;17.50;99.90;;;;;;4990837;28;20553;-66
2023/08/08 07:16:36;;;;;;;2.80;1.70;;;17.50;99.90;;;;;;4992073;28;20439;-66
2023/08/08 07:19:04;;;;;;;3.10;1.53;;;17.60;99.90;;;;;;4991960;28;20445;-66
2023/08/08 07:21:32;;;;;;;1.30;1.17;;;17.60;99.90;;;;;;4991868;28;20489;-64
2023/08/08 07:24:00;;;;;;;5.23;1.63;;;17.60;99.90;;;;;;4990885;28;20469;-65
2023/08/08 07:26:28;;;;;;;4.07;1.80;;;17.60;99.90;;;;;;4988938;28;20444;-65
2023/08/08 07:28:58;;;;;;;1.93;1.73;;;17.70;99.90;;;;;;4972500;28;20451;-66
2023/08/08 07:31:26;;;;;;;2.57;1.40;;;17.70;99.90;;;;;;4971708;28;20438;-65
2023/08/08 07:33:54;;;;;;;3.07;2.23;;;17.80;99.90;;;;;;4970684;28;20479;-65
2023/08/08 07:36:22;;;;;;;1.83;1.20;;;17.80;99.90;;;;;;4972446;28;20446;-65
2023/08/08 07:38:50;;;;;;;3.93;1.53;;;17.80;99.90;;;;;;4973375;28;20479;-66
2023/08/08 07:41:18;;;;;;;1.97;1.53;;;17.90;99.90;;;;;;4972840;28;20510;-66
2023/08/08 07:43:46;;;;;;;2.53;1.60;;;18.00;99.90;;;;;;4973202;28;21030;-67
2023/08/08 07:46:16;;;;;;;2.43;1.60;;;18.00;99.90;;;;;;4972972;28;20826;-66
2023/08/08 07:48:44;;;;;;;3.10;1.30;;;18.20;99.90;;;;;;4972779;28;20919;-65
2023/08/08 07:51:12;;;;;;;3.20;1.17;;;18.40;99.90;;;;;;4981721;28;20521;-65
2023/08/08 07:53:40;;;;;;;4.73;2.00;;;18.60;99.90;;;;;;4990543;28;20438;-66
2023/08/08 07:56:08;;;;;;;2.70;1.70;;;18.90;99.90;;;;;;4991375;28;20492;-63
2023/08/08 07:58:36;;;;;;;3.37;1.50;;;19.20;99.90;;;;;;4991577;28;20443;-64
2023/08/08 08:01:04;;;;;;;1.40;1.30;;;19.50;99.90;;;;;;4991486;28;20486;-64
2023/08/08 08:03:36;;;;;;;1.97;1.80;;;19.70;99.90;;;;;;4990324;28;20434;-64
2023/08/08 08:06:05;;;;;;;3.17;1.50;;;19.90;99.90;;;;;;4974556;28;20887;-65
2023/08/08 08:08:33;;;;;;;2.37;1.40;;;19.80;99.90;;;;;;4971935;28;20526;-64
2023/08/08 08:11:03;;;;;;;2.30;1.57;;;19.90;99.90;;;;;;4971708;28;20507;-65
2023/08/08 08:13:31;;;;;;;5.40;1.73;;;19.90;99.80;;;;;;4970407;28;20459;-65
2023/08/08 08:15:59;;;;;;;3.13;1.80;;;19.80;99.30;;;;;;4972055;28;20531;-65
2023/08/08 08:18:28;;;;;;;2.30;1.97;;;19.70;99.90;;;;;;4971896;28;20546;-64
2023/08/08 08:20:58;;;;;;;3.00;1.63;;;19.80;99.80;;;;;;4972895;28;20472;-63
2023/08/08 08:23:26;;;;;;;2.70;1.20;;;19.80;99.60;;;;;;4970652;28;20936;-65
2023/08/08 08:25:54;;;;;;;4.40;1.60;;;19.70;99.30;;;;;;4971591;28;20510;-65
2023/08/08 08:28:22;;;;;;;2.53;2.00;;;19.50;98.90;;;;;;4971806;28;20458;-65
2023/08/08 08:30:50;;;;;;;2.03;1.40;;;19.50;99.90;;;;;;4971370;28;20530;-66
2023/08/08 08:33:18;;;;;;;2.37;1.23;;;19.50;99.90;;;;;;4970343;28;20486;-64
2023/08/08 08:35:46;;;;;;;2.20;1.50;;;19.60;98.40;;;;;;4971386;28;20551;-65
2023/08/08 08:38:16;;;;;;;1.70;1.47;;;19.80;98.40;;;;;;4972308;28;21211;-65
2023/08/08 08:40:47;;;;;;;2.13;1.60;;;19.80;98.60;;;;;;4971491;28;20554;-65
2023/08/08 08:43:16;;;;;;;3.83;1.50;;;19.70;98.50;;;;;;4970032;28;20454;-65
2023/08/08 08:45:46;;;;;;;1.73;1.37;;;19.90;98.40;;;;;;4971204;28;20570;-65
2023/08/08 08:48:16;;;;;;;2.30;1.40;;;20.10;97.70;;;;;;4971325;28;20518;-65
2023/08/08 08:50:48;;;;;;;2.20;1.40;;;20.10;97.50;;;;;;4971205;28;20443;-65
2023/08/08 08:53:18;;;;;;;1.60;1.50;;;20.10;97.90;;;;;;4971317;28;20527;-64
2023/08/08 08:55:48;;;;;;;3.10;1.73;;;20.20;97.60;;;;;;4970556;28;20464;-65
2023/08/08 08:58:17;;;;;;;2.00;1.80;;;20.20;96.10;;;;;;4971128;28;20527;-65
2023/08/08 09:00:46;;;;;;;2.10;1.27;;;20.10;96.10;;;;;;4970983;28;20475;-65
2023/08/08 09:03:15;;;;;;;1.70;1.20;;;20.20;96.30;;;;;;4969789;28;20483;-65
2023/08/08 09:05:44;;;;;;;3.20;1.47;;;20.50;97.00;;;;;;4974266;28;20479;-65
2023/08/08 09:08:12;;;;;;;1.67;1.40;;;20.80;96.00;;;;;;4971049;28;20587;-66
2023/08/08 09:10:42;;;;;;;2.63;1.33;;;21.00;94.60;;;;;;4971034;28;20440;-65
2023/08/08 09:13:10;;;;;;;1.70;1.40;;;21.10;94.50;;;;;;4969594;28;20455;-65
2023/08/08 09:15:39;;;;;;;2.80;1.40;;;21.10;93.50;;;;;;4970759;28;20973;-65
2023/08/08 09:18:08;;;;;;;1.80;1.30;;;21.20;94.10;;;;;;4970773;28;21010;-65
2023/08/08 09:20:36;;;;;;;2.00;1.20;;;21.10;92.30;;;;;;4989988;28;20602;-65
2023/08/08 09:23:05;;;;;;;1.63;1.03;;;20.90;91.90;;;;;;4988927;28;20486;-65
2023/08/08 09:25:33;;;;;;;2.00;1.40;;;21.00;91.00;;;;;;4990158;28;20477;-65
2023/08/08 09:28:02;;;;;;;1.80;1.30;;;20.90;90.80;;;;;;4990354;28;20447;-65
2023/08/08 09:30:31;;;;;;;2.93;0.83;;;21.10;90.40;;;;;;4990010;28;20461;-65
2023/08/08 09:33:01;;;;;;;2.03;1.43;;;20.80;88.10;;;;;;4989344;28;20469;-65
2023/08/08 09:35:30;;;;;;;2.97;1.20;;;20.60;90.50;;;;;;4982333;28;20479;-66
2023/08/08 09:37:58;;;;;;;1.70;1.30;;;20.50;91.50;;;;;;4970806;28;20527;-65
2023/08/08 09:40:26;;;;;;;3.73;1.20;;;20.40;90.90;;;;;;4970710;28;20476;-65
2023/08/08 09:42:54;;;;;;;1.90;1.40;;;20.20;87.20;;;;;;4969596;28;20459;-65
2023/08/08 09:45:24;;;;;;;2.83;1.40;;;20.10;89.00;;;;;;4970710;28;21068;-65
2023/08/08 09:47:53;;;;;;;2.40;1.40;;;20.50;87.20;;;;;;4971193;28;20974;-65
2023/08/08 09:50:21;;;;;;;1.57;1.30;;;20.80;87.20;;;;;;4974553;28;20447;-65
2023/08/08 09:52:50;;;;;;;3.80;1.17;;;21.30;85.40;;;;;;4969815;28;20946;-65
2023/08/08 09:55:20;;;;;;;3.00;1.70;;;21.70;82.20;;;;;;4973463;28;20858;-65
2023/08/08 09:57:49;;;;;;;4.53;1.70;;;22.10;81.40;;;;;;4974065;28;20527;-65
2023/08/08 10:00:20;;;;;;;1.37;1.13;;;22.50;80.60;;;;;;4974143;28;20444;-65
2023/08/08 10:02:50;;;;;;;2.10;1.20;;;22.60;77.00;;;;;;4972784;28;20483;-66
2023/08/08 10:05:19;;;;;;;1.97;1.33;;;22.40;78.60;;;;;;4984254;28;20989;-65
2023/08/08 10:07:47;;;;;;;1.47;1.20;;;22.90;77.50;;;;;;4993335;28;20450;-65
2023/08/08 10:10:18;;;;;;;1.73;1.30;;;23.00;71.40;;;;;;4993396;28;21120;-66
2023/08/08 10:12:48;;;;;;;3.07;1.40;;;22.50;67.50;;;;;;4992253;28;20505;-65
2023/08/08 10:15:17;;;;;;;3.33;1.10;;;22.40;73.00;;;;;;4993481;28;21041;-64
2023/08/08 10:17:45;;;;;;;1.67;1.30;;;22.60;72.80;;;;;;4993426;28;20447;-65
2023/08/08 10:20:17;;;;;;;2.20;1.30;;;22.70;68.10;;;;;;4993008;28;20485;-66
2023/08/08 10:22:47;;;;;;;3.47;1.10;;;23.00;68.20;;;;;;4972729;28;21282;-65
2023/08/08 10:25:24;;;;;;;2.27;1.17;;;23.30;67.60;;;;;;4973850;28;20467;-65
2023/08/08 10:28:04;;;;;;;2.60;1.70;;;23.30;66.50;;;;;;4974005;28;20439;-64
2023/08/08 10:30:54;;;;;;;1.30;1.17;;;22.90;68.20;;;;;;4973544;28;20446;-65
2023/08/08 10:33:24;;;;;;;2.23;1.30;;;22.90;65.30;;;;;;4972639;28;20511;-65
2023/08/08 10:35:57;;;;;;;2.17;1.20;;;23.10;65.30;;;;;;4973611;28;20471;-65
2023/08/08 10:38:25;;;;;;;1.67;1.00;;;23.00;65.20;;;;;;4986461;28;20830;-65
2023/08/08 10:40:58;;;;;;;2.67;1.30;;;22.90;63.50;;;;;;4992733;28;20514;-65
2023/08/08 10:43:28;;;;;;;2.03;1.27;;;22.60;62.40;;;;;;4991065;28;20446;-65
2023/08/08 10:46:00;;;;;;;2.40;1.30;;;22.70;62.40;;;;;;4992811;28;20494;-65
2023/08/08 10:48:51;;;;;;;1.50;0.90;;;22.80;64.00;;;;;;4992330;28;20434;-65
2023/08/08 10:51:21;;;;;;;1.73;1.43;;;22.80;62.40;;;;;;4992582;28;21055;-65
2023/08/08 10:53:52;;;;;;;1.40;1.10;;;22.70;63.00;;;;;;4989591;28;20486;-66
2023/08/08 10:56:21;;;;;;;1.67;1.03;;;22.90;62.00;;;;;;4992624;28;20474;-65
2023/08/08 10:58:49;;;;;;;1.57;1.10;;;23.10;61.60;;;;;;4992661;28;20450;-65
2023/08/08 11:01:18;;;;;;;2.17;1.10;;;22.70;60.10;;;;;;4992389;28;20443;-65
2023/08/08 11:03:49;;;;;;;1.30;1.03;;;22.70;59.40;;;;;;4991235;28;20446;-63
2023/08/08 11:06:18;;;;;;;2.70;1.40;;;23.10;59.70;;;;;;4992211;28;21101;-65
2023/08/08 11:08:48;;;;;;;2.17;1.70;;;22.90;58.30;;;;;;4992380;28;20474;-61
2023/08/08 11:11:17;;;;;;;2.33;1.30;;;22.70;58.70;;;;;;4974433;28;20487;-65
2023/08/08 11:13:45;;;;;;;2.10;0.90;;;23.20;59.10;;;;;;4971551;28;20518;-65
2023/08/08 11:16:15;;;;;;;1.53;1.20;;;23.70;58.80;;;;;;4972588;28;20950;-65
2023/08/08 11:18:43;;;;;;;2.10;1.10;;;24.10;58.10;;;;;;4972386;28;20522;-65
2023/08/08 11:21:13;;;;;;;1.33;1.10;;;24.20;56.40;;;;;;4972827;28;20487;-65
2023/08/08 11:23:48;;;;;;;2.00;1.20;;;24.30;56.70;;;;;;4971395;28;20438;-65
2023/08/08 11:26:19;;;;;;;1.67;1.47;;;23.80;57.00;;;;;;4976909;28;20793;-65
2023/08/08 11:28:51;;;;;;;2.30;1.50;;;23.60;55.60;;;;;;4991997;28;20501;-65
2023/08/08 11:31:20;;;;;;;1.60;1.30;;;23.50;56.60;;;;;;4991700;28;20526;-65
2023/08/08 11:33:48;;;;;;;1.40;1.27;;;23.80;57.60;;;;;;4990588;28;21193;-65
2023/08/08 11:36:17;;;;;;;1.77;1.30;;;24.00;55.70;;;;;;4991675;28;20525;-66
2023/08/08 11:38:45;;;;;;;1.87;1.23;;;24.80;57.10;;;;;;4991880;28;20504;-65
2023/08/08 11:41:16;;;;;;;1.50;1.40;;;25.30;55.60;;;;;;4991591;28;20848;-65
2023/08/08 11:43:46;;;;;;;1.50;1.20;;;25.60;54.90;;;;;;4976627;28;20524;-66
2023/08/08 11:46:14;;;;;;;2.13;1.27;;;25.70;53.90;;;;;;4971963;28;20534;-65
2023/08/08 11:48:43;;;;;;;3.27;1.37;;;25.20;54.10;;;;;;4972284;28;20447;-65
2023/08/08 11:51:11;;;;;;;2.50;1.37;;;24.30;55.10;;;;;;4980836;28;20454;-65
2023/08/08 11:53:50;;;;;;;2.50;1.40;;;24.40;55.60;;;;;;4992016;28;20450;-65
2023/08/08 11:56:22;;;;;;;1.73;1.23;;;24.50;52.60;;;;;;4985015;28;20478;-65
2023/08/08 11:58:52;;;;;;;1.97;1.10;;;24.80;54.10;;;;;;4984918;28;20452;-65
2023/08/08 12:01:21;;;;;;;1.83;1.20;;;25.20;54.50;;;;;;4981576;28;20470;-66
2023/08/08 12:03:49;;;;;;;2.37;1.47;;;25.40;53.60;;;;;;4979919;28;20557;-65
2023/08/08 12:06:18;;;;;;;2.40;1.30;;;25.70;53.80;;;;;;4977990;28;20444;-64
2023/08/08 12:08:48;;;;;;;1.70;1.60;;;25.60;53.30;;;;;;4987481;28;20447;-65
2023/08/08 12:11:17;;;;;;;3.20;1.40;;;25.50;54.80;;;;;;4982004;28;20506;-65
2023/08/08 12:14:00;;;;;;;2.73;1.70;;;24.90;53.60;;;;;;4982665;28;20439;-65
2023/08/08 12:16:29;;;;;;;1.40;1.27;;;24.70;55.70;;;;;;4976758;28;20444;-63
2023/08/08 12:19:03;;;;;;;2.60;1.30;;;24.40;53.20;;;;;;4974238;28;20469;-65
2023/08/08 12:21:33;;;;;;;3.10;1.37;;;23.90;54.00;;;;;;4984573;28;20440;-65
2023/08/08 12:24:01;;;;;;;2.10;1.50;;;24.20;55.70;;;;;;4981150;28;20478;-65
2023/08/08 12:26:29;;;;;;;1.77;1.47;;;24.30;53.90;;;;;;4976130;28;20472;-65
2023/08/08 12:28:58;;;;;;;1.60;1.20;;;24.30;54.00;;;;;;4987411;28;20439;-66
2023/08/08 12:31:26;;;;;;;1.43;1.13;;;24.10;52.20;;;;;;4981858;28;20484;-65
2023/08/08 12:33:54;;;;;;;2.70;1.30;;;23.90;52.30;;;;;;4980034;28;20499;-66
2023/08/08 12:36:22;;;;;;;1.60;1.30;;;23.70;53.80;;;;;;4976939;28;20537;-67
2023/08/08 12:38:50;;;;;;;3.43;1.47;;;24.20;55.40;;;;;;4971588;28;20495;-64
2023/08/08 12:41:19;;;;;;;2.03;1.20;;;24.70;53.40;;;;;;4971315;28;20447;-64
2023/08/08 12:43:47;;;;;;;2.07;1.37;;;24.80;54.10;;;;;;4969964;28;20539;-65
2023/08/08 12:46:16;;;;;;;1.77;1.40;;;25.00;52.20;;;;;;4974078;28;20458;-64
2023/08/08 12:48:45;;;;;;;2.30;1.23;;;25.30;51.50;;;;;;4990618;28;20478;-64
2023/08/08 12:51:13;;;;;;;1.50;1.40;;;24.90;51.80;;;;;;4990798;28;20557;-65
2023/08/08 12:53:41;;;;;;;1.43;1.20;;;24.60;53.40;;;;;;4985060;28;20983;-64
2023/08/08 12:56:09;;;;;;;1.50;1.40;;;24.50;54.00;;;;;;4971191;28;20526;-65